< < Back
Terminal Aerodrome Forecast


Current Version              Previous Versions:   1  2  3  4  5  6  7  8  9  

Terminal Aerodrome Forecast

071
FTUS42 KFFC 301700
TAFFTY
TAF
KFTY 301729Z 3018/3118 03005KT P6SM SCT045 SCT250
     FM310300 00000KT P6SM SCT250
     FM311600 08003KT P6SM SCT040=

Latest METAR

223
SAUS70 KWBC 310700 RRA
MTRFTY
METAR KFTY 310653Z 00000KT 10SM FEW070 19/17 A3005 RMK AO2 SLP167
T01890167


USA.gov is the U.S. government's official web portal to all federal, state and local government web resources and services.